Kezdőlap
METAR-TAF:

METAR-TAF

Repülőterek :

Washington Municipal Airport

Washington, Iowa, Amerikai Egyesült Államok

földrajzi szélesség: 41-17N, földrajzi hosszúság: 091-40W, magasság: 230 m

Jelenlegi meteorológiai megfigyelések

A jelentés 21 perccel ezelõtt készült, 17:35 UTC
Északkeleti szél 8 kt széllökések: 14 kt
Hőmérséklet 29°C
Páratartalom 84%
Légköri nyomás 1008 hPa
Látótávolság: 16.1 km
Derült ég

METAR: KAWG 181735Z AUTO 05008G14KT 10SM CLR 29/26 A2978 RMK AO2

Idő: 12:56 (17:56 UTC)


TAF: hiányzik

Meteorológiai megfigyelések és előrejelzések több, mint 4000 repülőtéren (METAR és TAF jelentéseket).

A térképen piros és sárga pontok jelzik az elérhető meteorológiai állomásokat.

Mozgassa az egeret a pont fölött, hogy megjelenjen az állomás neve.

Azután kattintson az időjárási megfigyelések és előrejelzések megtekintéséhez.

A térkép megváltoztatása: kattintson a fekete keresztel jelölt zöld gombra ráközelítéshez, a vonallal jelölt zöld gombra távolításhoz, vagy a zöld nyilakra a szomszédos térképek eléréséhez.


METAR-TAF: